createdAt,value
2019-02-17T00:00:38.978Z,86.297607
2019-02-17T00:06:01.651Z,86.92627
2019-02-17T00:11:24.322Z,87.524414
2019-02-17T00:16:46.976Z,88.146973
2019-02-17T00:22:09.741Z,88.146973
2019-02-17T00:27:32.415Z,88.769531
2019-02-17T00:32:55.140Z,87.237549
2019-02-17T00:38:18.068Z,86.193848
2019-02-17T00:43:40.792Z,86.572266
2019-02-17T00:49:03.531Z,85.119629
2019-02-17T00:54:26.287Z,85.845947
2019-02-17T00:59:49.007Z,83.795166
2019-02-17T01:05:11.780Z,84.393311
2019-02-17T01:10:34.507Z,86.090088
2019-02-17T01:15:57.903Z,87.17041
2019-02-17T01:21:20.593Z,87.792969
2019-02-17T01:26:43.591Z,87.445068
2019-02-17T01:32:06.307Z,86.468506
2019-02-17T01:37:28.967Z,85.638428
2019-02-17T01:42:51.694Z,85.882568
2019-02-17T01:48:14.331Z,87.896729
2019-02-17T01:53:37.989Z,87.689209
2019-02-17T01:59:01.925Z,87.548828
2019-02-17T02:04:24.587Z,86.859131
2019-02-17T02:09:47.662Z,87.585449
2019-02-17T02:15:10.404Z,87.896729
2019-02-17T02:20:33.215Z,86.053467
2019-02-17T02:25:55.894Z,84.25293
2019-02-17T02:31:18.666Z,84.289551
2019-02-17T02:36:41.352Z,86.090088
2019-02-17T02:42:04.147Z,83.526611
2019-02-17T02:47:26.808Z,83.911133
2019-02-17T02:52:49.449Z,86.590576
2019-02-17T02:58:12.282Z,88.500977
2019-02-17T03:03:34.922Z,88.977051
2019-02-17T03:08:57.806Z,87.524414
2019-02-17T03:14:20.758Z,89.331055
2019-02-17T03:19:43.432Z,89.331055
2019-02-17T03:25:06.291Z,89.4104
2019-02-17T03:30:29.118Z,91.809082
2019-02-17T03:35:51.827Z,90.661621
2019-02-17T03:41:14.552Z,91.644287
2019-02-17T03:46:37.220Z,91.394043
2019-02-17T03:51:59.914Z,90.307617
2019-02-17T03:57:24.365Z,90.9729
2019-02-17T04:02:47.925Z,90.582275
2019-02-17T04:08:10.676Z,89.27002
2019-02-17T04:13:33.442Z,90.203857
2019-02-17T04:18:56.149Z,88.812256
2019-02-17T04:24:20.312Z,88.293457
2019-02-17T04:29:43.117Z,88.354492
2019-02-17T04:35:05.793Z,86.962891
2019-02-17T04:40:28.607Z,87.628174
2019-02-17T04:45:52.112Z,87.420654
2019-02-17T04:51:15.567Z,88.293457
2019-02-17T04:56:38.408Z,86.486816
2019-02-17T05:02:01.229Z,86.694336
2019-02-17T05:07:23.911Z,87.005615
2019-02-17T05:12:46.582Z,87.213135
2019-02-17T05:18:09.273Z,87.664795
2019-02-17T05:23:31.982Z,87.005615
2019-02-17T05:28:56.477Z,86.834717
2019-02-17T05:34:17.416Z,87.316895
2019-02-17T05:39:40.671Z,86.065674
2019-02-17T05:45:03.369Z,87.915039
2019-02-17T05:50:26.095Z,88.787842
2019-02-17T05:55:48.852Z,89.099121
2019-02-17T06:01:11.572Z,89.4104
2019-02-17T06:06:34.383Z,88.330078
2019-02-17T06:11:57.972Z,88.995361
2019-02-17T06:17:20.704Z,88.787842
2019-02-17T06:22:43.493Z,89.868164
2019-02-17T06:28:06.227Z,90.325928
2019-02-17T06:33:28.952Z,91.516113
2019-02-17T06:38:51.705Z,92.749023
2019-02-17T06:44:14.470Z,94.836426
2019-02-17T06:49:37.269Z,95.08667
2019-02-17T06:54:59.973Z,95.562744
2019-02-17T07:00:22.746Z,95.501709
2019-02-17T07:05:45.446Z,96.54541
2019-02-17T07:11:08.188Z,97.027588
2019-02-17T07:16:30.872Z,94.659424
2019-02-17T07:21:53.651Z,91.143799
2019-02-17T07:27:16.447Z,89.331055
2019-02-17T07:32:39.159Z,88.397217
2019-02-17T07:38:01.948Z,87.420654
2019-02-17T07:43:24.817Z,86.132812
2019-02-17T07:48:48.341Z,85.36377
2019-02-17T07:54:11.522Z,84.533691
2019-02-17T07:59:36.339Z,83.526611
2019-02-17T08:04:59.388Z,81.92749
2019-02-17T08:10:22.391Z,83.068848
2019-02-17T08:15:45.059Z,83.032227
2019-02-17T08:21:08.768Z,82.128906
2019-02-17T08:26:31.418Z,80.603027
2019-02-17T08:31:56.037Z,78.631592
2019-02-17T08:37:16.902Z,76.806641
2019-02-17T08:42:39.619Z,76.318359
2019-02-17T08:48:02.320Z,73.571777
2019-02-17T08:53:25.072Z,71.44165
2019-02-17T08:58:47.761Z,71.276855
2019-02-17T09:04:11.381Z,65.118408
2019-02-17T09:09:34.058Z,65.771484
2019-02-17T09:14:56.841Z,62.634277
2019-02-17T09:20:19.581Z,61.51123
2019-02-17T09:25:43.040Z,60.351562
2019-02-17T09:31:05.886Z,63.092041
2019-02-17T09:36:28.686Z,63.165283
2019-02-17T09:41:51.696Z,57.299805
2019-02-17T09:47:14.498Z,60.009766
2019-02-17T09:52:39.089Z,56.481934
2019-02-17T09:58:01.040Z,55.560303
2019-02-17T10:03:23.712Z,56.04248
2019-02-17T10:08:46.501Z,59.619141
2019-02-17T10:14:10.224Z,56.860352
2019-02-17T10:19:32.946Z,54.284668
2019-02-17T10:24:55.807Z,56.35376
2019-02-17T10:30:18.595Z,54.56543
2019-02-17T10:35:41.227Z,54.846191
2019-02-17T10:41:04.076Z,55.456543
2019-02-17T10:46:26.855Z,53.570557
2019-02-17T10:51:49.700Z,54.663086
2019-02-17T10:57:13.384Z,51.202393
2019-02-17T11:02:46.260Z,50.671387
2019-02-17T11:08:00.109Z,52.172852
2019-02-17T11:13:22.995Z,53.80249
2019-02-17T11:18:45.663Z,52.960205
2019-02-17T11:24:08.586Z,51.922607
2019-02-17T11:29:31.335Z,49.359131
2019-02-17T11:34:54.016Z,50.3479
2019-02-17T11:40:18.404Z,50.628662
2019-02-17T11:45:41.288Z,48.272705
2019-02-17T11:51:04.030Z,49.920654
2019-02-17T11:56:26.825Z,48.803711
2019-02-17T12:01:49.554Z,47.155762
2019-02-17T12:07:12.313Z,46.728516
2019-02-17T12:12:35.911Z,47.113037
2019-02-17T12:17:59.346Z,48.254395
2019-02-17T12:23:21.470Z,48.150635
2019-02-17T12:28:45.025Z,48.431396
2019-02-17T12:34:07.738Z,48.205566
2019-02-17T12:39:30.482Z,46.66748
2019-02-17T12:44:53.617Z,48.388672
2019-02-17T12:50:16.384Z,48.059082
2019-02-17T12:55:39.185Z,47.814941
2019-02-17T13:01:01.885Z,46.905518
2019-02-17T13:06:26.516Z,46.276855
2019-02-17T13:11:48.541Z,44.091797
2019-02-17T13:17:10.237Z,44.854736
2019-02-17T13:22:33.268Z,44.775391
2019-02-17T13:27:55.970Z,45.703125
2019-02-17T13:33:18.700Z,46.307373
2019-02-17T13:38:41.706Z,47.509766
2019-02-17T13:44:04.428Z,48.138428
2019-02-17T13:49:27.196Z,48.687744
2019-02-17T13:54:50.948Z,48.284912
2019-02-17T14:00:13.682Z,50.537109
2019-02-17T14:05:36.349Z,51.776123
2019-02-17T14:11:00.534Z,51.367188
2019-02-17T14:16:23.348Z,52.484131
2019-02-17T14:21:54.947Z,50.128174
2019-02-17T14:27:17.908Z,48.712158
2019-02-17T14:32:40.829Z,49.017334
2019-02-17T14:38:03.673Z,50.128174
2019-02-17T14:43:26.349Z,49.11499
2019-02-17T14:49:17.396Z,49.645996
2019-02-17T14:54:52.103Z,49.139404
2019-02-17T15:00:23.746Z,48.327637
2019-02-17T15:05:46.359Z,47.137451
2019-02-17T15:11:10.230Z,46.30127
2019-02-17T15:16:41.710Z,46.002197
2019-02-17T15:22:15.414Z,48.028564
2019-02-17T15:27:46.783Z,45.617676
2019-02-17T15:33:10.018Z,46.325684
2019-02-17T15:38:33.761Z,47.540283
2019-02-17T15:43:56.898Z,47.363281
2019-02-17T15:49:19.903Z,47.668457
2019-02-17T15:54:42.778Z,48.217773
2019-02-17T16:00:05.916Z,49.029541
2019-02-17T16:05:29.055Z,52.758789
2019-02-17T16:10:51.994Z,55.279541
2019-02-17T16:16:14.690Z,57.977295
2019-02-17T16:21:37.394Z,60.71167
2019-02-17T16:27:00.155Z,62.432861
2019-02-17T16:32:22.991Z,63.38501
2019-02-17T16:37:45.934Z,64.331055
2019-02-17T16:43:09.933Z,66.851807
2019-02-17T16:48:32.627Z,68.585205
2019-02-17T16:53:55.615Z,69.946289
2019-02-17T16:59:18.376Z,72.10083
2019-02-17T17:04:47.979Z,73.779297
2019-02-17T17:10:05.497Z,72.10083
2019-02-17T17:15:28.422Z,71.484375
2019-02-17T17:20:51.312Z,72.442627
2019-02-17T17:26:13.993Z,72.027588
2019-02-17T17:31:36.721Z,71.618652
2019-02-17T17:36:59.541Z,69.500732
2019-02-17T17:42:23.326Z,69.293213
2019-02-17T17:47:47.252Z,68.572998
2019-02-17T17:53:09.916Z,67.315674
2019-02-17T17:58:33.599Z,67.41333
2019-02-17T18:03:56.301Z,66.796875
2019-02-17T18:09:19.045Z,66.796875
2019-02-17T18:14:41.815Z,68.505859
2019-02-17T18:20:04.659Z,68.811035
2019-02-17T18:25:27.397Z,68.847656
2019-02-17T18:30:50.077Z,67.858887
2019-02-17T18:36:13.175Z,66.387939
2019-02-17T18:41:35.883Z,66.931152
2019-02-17T18:46:58.610Z,67.889404
2019-02-17T18:52:22.123Z,70.111084
2019-02-17T18:57:49.801Z,70.727539
2019-02-17T19:03:07.582Z,70.214844
2019-02-17T19:08:30.420Z,70.41626
2019-02-17T19:13:53.287Z,71.374512
2019-02-17T19:19:16.145Z,72.338867
2019-02-17T19:24:39.188Z,72.784424
2019-02-17T19:30:01.991Z,74.77417
2019-02-17T19:35:24.820Z,75.183105
2019-02-17T19:40:48.573Z,73.675537
2019-02-17T19:46:11.292Z,73.608398
2019-02-17T19:51:34.132Z,74.42627
2019-02-17T19:56:57.017Z,74.77417
2019-02-17T20:02:19.947Z,75.286865
2019-02-17T20:07:45.201Z,74.56665
2019-02-17T20:13:09.346Z,75.012207
2019-02-17T20:18:32.001Z,75.457764
2019-02-17T20:23:54.779Z,76.489258
2019-02-17T20:29:17.454Z,76.525879
2019-02-17T20:34:40.334Z,76.629639
2019-02-17T20:40:03.316Z,75.457764
2019-02-17T20:45:26.034Z,75.256348
2019-02-17T20:50:48.712Z,73.980713
2019-02-17T20:56:11.505Z,73.260498
2019-02-17T21:01:34.171Z,72.198486
2019-02-17T21:06:57.053Z,73.193359
2019-02-17T21:12:19.806Z,72.98584
2019-02-17T21:17:42.468Z,71.716309
2019-02-17T21:23:05.318Z,72.265625
2019-02-17T21:28:28.055Z,71.234131
2019-02-17T21:33:50.884Z,71.850586
2019-02-17T21:39:13.573Z,71.337891
2019-02-17T21:44:36.232Z,70.477295
2019-02-17T21:49:58.988Z,69.9646
2019-02-17T21:55:21.726Z,70.751953
2019-02-17T22:00:45.132Z,71.264648
2019-02-17T22:06:07.785Z,70.959473
2019-02-17T22:11:30.579Z,70.88623
2019-02-17T22:16:53.535Z,71.850586
2019-02-17T22:22:16.261Z,70.98999
2019-02-17T22:27:38.949Z,70.269775
2019-02-17T22:33:01.632Z,70.98999
2019-02-17T22:38:24.297Z,71.020508
2019-02-17T22:43:46.968Z,70.715332
2019-02-17T22:49:09.614Z,72.058105
2019-02-17T22:54:32.399Z,71.124268
2019-02-17T22:59:55.211Z,71.228027
2019-02-17T23:05:17.994Z,70.916748
2019-02-17T23:10:40.912Z,71.368408
2019-02-17T23:16:03.750Z,71.124268
2019-02-17T23:21:26.706Z,71.057129
2019-02-17T23:26:49.455Z,70.64209
2019-02-17T23:32:12.365Z,71.984863
2019-02-17T23:37:35.239Z,72.2229
2019-02-17T23:42:57.978Z,71.710205
2019-02-17T23:48:20.686Z,73.638916
2019-02-17T23:53:43.478Z,71.502686
2019-02-17T23:59:06.270Z,71.636963
